Time;durP1;ratioP1;P1;durP2;ratioP2;P2;SDS_P1;SDS_P2;PMS_P1;PMS_P2;Temp;Humidity;BMP_temperature;BMP_pressure;BME280_temperature;BME280_humidity;BME280_pressure;Samples;Min_cycle;Max_cycle;Signal;HPM_P1;HPM_P2
2022/07/17 00:01:28;;;;;;;6.55;1.63;;;;;;;17.03;55.12;99720.38;5047780;28;20440;-62
2022/07/17 00:03:54;;;;;;;2.95;1.60;;;;;;;16.89;55.11;99697.53;5031022;28;20044;-61
2022/07/17 00:06:19;;;;;;;2.75;1.70;;;;;;;17.11;55.12;99730.38;5031484;28;20025;-62
2022/07/17 00:08:45;;;;;;;3.45;1.70;;;;;;;17.14;55.52;99724.63;5032866;28;20072;-62
2022/07/17 00:11:11;;;;;;;3.58;2.05;;;;;;;17.11;55.77;99716.84;5032145;28;20044;-61
2022/07/17 00:13:36;;;;;;;5.68;2.00;;;;;;;17.17;55.67;99718.84;5027321;28;20037;-60
2022/07/17 00:16:02;;;;;;;4.18;1.98;;;;;;;17.21;55.63;99728.31;5025363;28;20084;-60
2022/07/17 00:18:27;;;;;;;3.97;1.90;;;;;;;17.21;55.73;99717.50;5030850;28;20087;-62
2022/07/17 00:20:53;;;;;;;2.53;1.75;;;;;;;17.23;55.99;99725.47;5027481;28;20112;-61
2022/07/17 00:23:18;;;;;;;5.43;2.10;;;;;;;17.22;56.26;99723.78;5030197;28;20861;-61
2022/07/17 00:25:44;;;;;;;3.55;1.90;;;;;;;17.21;56.18;99724.78;5031638;28;20369;-62
2022/07/17 00:28:10;;;;;;;4.38;2.22;;;;;;;17.20;56.13;99718.50;5031557;28;20033;-61
2022/07/17 00:30:36;;;;;;;3.97;2.03;;;;;;;17.18;56.38;99722.44;5032084;28;20485;-61
2022/07/17 00:33:01;;;;;;;3.08;2.10;;;;;;;17.19;56.61;99721.41;5031789;28;20488;-61
2022/07/17 00:35:27;;;;;;;3.80;2.22;;;;;;;17.17;56.55;99718.03;5031591;28;20120;-61
2022/07/17 00:37:52;;;;;;;4.15;1.92;;;;;;;17.17;56.91;99718.03;5032130;28;20035;-61
2022/07/17 00:40:21;;;;;;;3.67;2.00;;;;;;;17.20;56.77;99728.50;5032253;28;20366;-60
2022/07/17 00:42:47;;;;;;;3.90;1.92;;;;;;;17.14;56.91;99716.50;5032190;28;20443;-62
2022/07/17 00:45:14;;;;;;;3.80;2.20;;;;;;;17.16;56.95;99722.59;5031909;28;20048;-61
2022/07/17 00:48:02;;;;;;;5.15;2.30;;;;;;;17.27;57.15;99724.09;5031666;28;20048;-62
2022/07/17 00:50:34;;;;;;;4.40;1.80;;;;;;;17.19;57.10;99721.41;5032135;28;20033;-62
2022/07/17 00:53:00;;;;;;;5.03;2.00;;;;;;;16.94;57.36;99692.47;5030530;28;20389;-61
2022/07/17 00:55:26;;;;;;;7.70;2.33;;;;;;;17.08;57.54;99715.31;5030616;28;20143;-62
2022/07/17 00:57:54;;;;;;;4.82;2.08;;;;;;;17.10;57.31;99723.25;5031698;28;20034;-61
2022/07/17 01:00:20;;;;;;;3.88;2.15;;;;;;;17.10;57.43;99723.25;5031602;28;20025;-62
2022/07/17 01:02:48;;;;;;;3.08;2.25;;;;;;;16.90;57.48;99685.69;5031789;28;20026;-62
2022/07/17 01:05:15;;;;;;;2.40;2.08;;;;;;;17.12;57.73;99714.97;5030611;28;20037;-62
2022/07/17 01:07:41;;;;;;;3.20;1.90;;;;;;;17.12;57.67;99723.94;5031194;28;20041;-62
2022/07/17 01:10:07;;;;;;;7.10;2.10;;;;;;;17.13;57.60;99722.09;5030773;28;20030;-61
2022/07/17 01:12:34;;;;;;;4.15;1.98;;;;;;;17.13;57.45;99722.09;5031190;28;20030;-62
2022/07/17 01:15:00;;;;;;;5.82;2.30;;;;;;;17.11;57.42;99713.28;5031013;28;20037;-61
2022/07/17 01:17:26;;;;;;;3.80;1.98;;;;;;;17.16;57.45;99719.88;5030098;28;20022;-61
2022/07/17 01:19:52;;;;;;;3.20;2.10;;;;;;;17.17;57.46;99720.75;5026205;28;20116;-62
2022/07/17 01:22:18;;;;;;;6.63;2.38;;;;;;;17.15;57.46;99723.59;5011165;28;20135;-62
2022/07/17 01:24:44;;;;;;;4.78;2.10;;;;;;;17.19;57.20;99724.94;5018967;28;20439;-62
2022/07/17 01:27:09;;;;;;;5.07;1.95;;;;;;;17.22;57.54;99726.47;5030983;28;20044;-61
2022/07/17 01:29:36;;;;;;;6.07;2.10;;;;;;;17.20;57.04;99723.09;5029921;28;20056;-60
2022/07/17 01:32:02;;;;;;;5.93;2.70;;;;;;;17.29;57.12;99730.19;5030941;28;20029;-61
2022/07/17 01:34:28;;;;;;;4.90;2.25;;;;;;;17.34;57.12;99738.63;5031017;28;20049;-61
2022/07/17 01:36:53;;;;;;;5.35;2.28;;;;;;;17.40;57.00;99742.53;5030353;28;20073;-62
2022/07/17 01:39:52;;;;;;;7.40;2.75;;;;;;;17.46;57.21;99741.00;5029550;28;20040;-61
2022/07/17 01:42:04;;;;;;;9.63;2.08;;;;;;;17.55;56.58;99729.13;5030185;28;20029;-62
2022/07/17 01:44:30;;;;;;;6.65;2.53;;;;;;;17.57;56.63;99735.22;5030788;28;20037;-62
2022/07/17 01:46:55;;;;;;;4.35;2.70;;;;;;;17.63;56.31;99739.09;5030667;28;20029;-62
2022/07/17 01:49:21;;;;;;;3.83;2.53;;;;;;;17.70;56.51;99734.69;5030458;28;20022;-61
2022/07/17 01:51:46;;;;;;;2.78;2.30;;;;;;;17.62;56.16;99713.91;5030928;28;20065;-60
2022/07/17 01:54:12;;;;;;;6.60;2.42;;;;;;;17.81;56.07;99741.59;5030980;28;20041;-62
2022/07/17 01:56:37;;;;;;;3.58;2.58;;;;;;;17.86;55.86;99733.81;5030235;28;20037;-62
2022/07/17 01:59:03;;;;;;;11.70;2.97;;;;;;;17.92;56.29;99743.97;5030063;28;20056;-61
2022/07/17 02:01:28;;;;;;;5.38;2.88;;;;;;;17.98;56.49;99737.00;5028908;28;20462;-62
2022/07/17 02:03:54;;;;;;;8.07;2.92;;;;;;;17.97;56.19;99734.47;5030091;28;20462;-62
2022/07/17 02:06:19;;;;;;;4.93;2.80;;;;;;;18.07;56.46;99738.69;5030432;28;20034;-61
2022/07/17 02:08:45;;;;;;;6.15;3.08;;;;;;;18.13;56.26;99739.84;5029150;28;20037;-61
2022/07/17 02:11:11;;;;;;;10.60;3.00;;;;;;;18.14;56.25;99730.69;5030422;28;20083;-60
2022/07/17 02:13:36;;;;;;;8.48;3.05;;;;;;;18.21;55.91;99733.56;5045542;28;20048;-62
2022/07/17 02:16:02;;;;;;;7.82;2.65;;;;;;;18.09;55.83;99708.72;5030713;28;20068;-60
2022/07/17 02:18:28;;;;;;;6.15;3.25;;;;;;;18.06;55.77;99706.34;5029583;28;20103;-62
2022/07/17 02:20:53;;;;;;;4.70;2.88;;;;;;;18.27;55.58;99740.13;5030181;28;20465;-60
2022/07/17 02:23:19;;;;;;;5.43;2.72;;;;;;;18.07;55.53;99705.31;5030365;28;20164;-61
2022/07/17 02:25:44;;;;;;;7.78;3.35;;;;;;;18.27;55.70;99723.84;5030141;28;20463;-62
2022/07/17 02:28:10;;;;;;;8.32;3.20;;;;;;;18.30;55.51;99729.78;5030175;28;20043;-62
2022/07/17 02:30:35;;;;;;;5.68;2.85;;;;;;;18.31;55.66;99736.88;5030635;28;20108;-61
2022/07/17 02:33:01;;;;;;;7.07;3.33;;;;;;;18.30;55.49;99728.91;5029043;28;20018;-61
2022/07/17 02:35:26;;;;;;;9.90;3.00;;;;;;;18.33;55.62;99728.59;5030236;28;20461;-61
2022/07/17 02:37:52;;;;;;;6.13;3.30;;;;;;;18.36;55.80;99736.38;5030198;28;20504;-61
2022/07/17 02:40:17;;;;;;;7.43;3.20;;;;;;;18.38;55.82;99731.59;5028776;28;20069;-60
2022/07/17 02:42:43;;;;;;;6.00;2.92;;;;;;;18.19;55.95;99706.63;5033603;28;20025;-61
2022/07/17 02:45:09;;;;;;;4.97;3.03;;;;;;;18.18;56.13;99709.50;5033859;28;20518;-61
2022/07/17 02:47:35;;;;;;;9.75;3.45;;;;;;;18.36;56.16;99739.06;5032917;28;20046;-61
2022/07/17 02:50:04;;;;;;;8.13;3.35;;;;;;;18.41;55.98;99735.81;5032841;28;20108;-62
2022/07/17 02:52:30;;;;;;;5.15;3.60;;;;;;;18.40;55.58;99732.28;5033875;28;20367;-61
2022/07/17 02:54:55;;;;;;;5.55;3.42;;;;;;;18.40;55.81;99723.28;5033503;28;20044;-61
2022/07/17 02:57:21;;;;;;;7.20;3.63;;;;;;;18.35;55.46;99707.56;5033854;28;20037;-61
2022/07/17 02:59:46;;;;;;;4.90;3.30;;;;;;;18.51;55.30;99731.84;5031929;28;20021;-62
2022/07/17 03:02:13;;;;;;;4.65;3.10;;;;;;;18.42;55.52;99727.53;5033127;28;20516;-62
2022/07/17 03:04:39;;;;;;;6.82;3.50;;;;;;;18.36;55.70;99709.25;5033105;28;20418;-61
2022/07/17 03:07:04;;;;;;;6.47;3.72;;;;;;;18.54;55.72;99743.38;5033749;28;20053;-61
2022/07/17 03:09:30;;;;;;;10.30;3.28;;;;;;;18.41;55.79;99711.41;5032872;28;20025;-61
2022/07/17 03:11:55;;;;;;;5.40;3.53;;;;;;;18.52;55.69;99738.13;5033574;28;20025;-61
2022/07/17 03:14:21;;;;;;;5.68;3.47;;;;;;;18.64;55.72;99738.59;5032787;28;20097;-62
2022/07/17 03:16:46;;;;;;;3.97;3.30;;;;;;;18.65;55.49;99734.84;5033475;28;20048;-60
2022/07/17 03:19:12;;;;;;;5.90;3.53;;;;;;;18.78;55.14;99748.66;5032347;28;20045;-62
2022/07/17 03:21:37;;;;;;;4.95;3.38;;;;;;;18.88;54.98;99742.16;5033632;28;20022;-61
2022/07/17 03:24:03;;;;;;;6.93;3.97;;;;;;;18.80;54.43;99716.75;5032983;28;20493;-61
2022/07/17 03:26:28;;;;;;;7.07;3.42;;;;;;;19.07;54.38;99741.72;5033136;28;20030;-61
2022/07/17 03:28:54;;;;;;;6.63;3.75;;;;;;;19.14;54.40;99735.56;5039385;28;20136;-61
2022/07/17 03:31:19;;;;;;;7.85;3.50;;;;;;;19.21;53.72;99742.78;5032963;28;20057;-60
2022/07/17 03:33:45;;;;;;;4.07;3.40;;;;;;;19.21;53.67;99722.94;5032868;28;20138;-62
2022/07/17 03:36:10;;;;;;;7.32;3.38;;;;;;;19.45;53.19;99740.03;5032709;28;20045;-62
2022/07/17 03:38:36;;;;;;;5.13;3.28;;;;;;;19.58;52.84;99747.53;5032829;28;20042;-60
2022/07/17 03:41:01;;;;;;;5.32;3.45;;;;;;;19.73;52.53;99745.69;5032428;28;20425;-60
2022/07/17 03:43:27;;;;;;;6.55;3.50;;;;;;;19.83;51.73;99720.09;5032533;28;20529;-61
2022/07/17 03:45:52;;;;;;;7.13;3.30;;;;;;;20.17;51.10;99738.59;5032633;28;20045;-61
2022/07/17 03:48:18;;;;;;;5.13;3.40;;;;;;;20.48;50.66;99740.22;5032144;28;20039;-61
2022/07/17 03:50:43;;;;;;;5.35;3.25;;;;;;;20.90;49.66;99750.53;5032511;28;20103;-62
2022/07/17 03:53:08;;;;;;;6.30;3.17;;;;;;;21.23;48.33;99748.13;5032186;28;20466;-60
2022/07/17 03:55:34;;;;;;;5.47;3.20;;;;;;;21.60;47.69;99749.91;5031004;28;20037;-61
2022/07/17 03:58:00;;;;;;;6.55;3.60;;;;;;;22.02;46.71;99755.44;5032164;28;20033;-60
2022/07/17 04:00:25;;;;;;;5.78;3.78;;;;;;;22.40;45.86;99754.97;5032372;28;20040;-61
2022/07/17 04:02:51;;;;;;;5.43;4.00;;;;;;;22.57;44.77;99751.94;5032533;28;20073;-61
2022/07/17 04:05:16;;;;;;;9.55;3.60;;;;;;;22.75;44.82;99763.13;5031769;28;20045;-61
2022/07/17 04:07:42;;;;;;;6.47;3.90;;;;;;;22.94;44.36;99756.03;5032408;28;20041;-61
2022/07/17 04:10:10;;;;;;;7.53;3.67;;;;;;;23.09;43.97;99760.47;5032802;28;20049;-61
2022/07/17 04:12:37;;;;;;;8.60;3.70;;;;;;;23.18;43.64;99756.47;5032069;28;20485;-62
2022/07/17 04:15:03;;;;;;;6.05;3.92;;;;;;;23.29;43.28;99756.97;5032082;28;20064;-60
2022/07/17 04:17:29;;;;;;;8.73;4.40;;;;;;;23.37;43.21;99752.09;5031995;28;20454;-62
2022/07/17 04:19:54;;;;;;;12.73;3.85;;;;;;;23.55;42.69;99755.28;5032118;28;20036;-61
2022/07/17 04:22:20;;;;;;;4.88;3.08;;;;;;;23.62;41.66;99746.00;5032057;28;20029;-61
2022/07/17 04:24:45;;;;;;;4.15;3.03;;;;;;;23.79;41.51;99749.16;5031482;28;20033;-60
2022/07/17 04:27:11;;;;;;;3.33;2.58;;;;;;;24.01;40.69;99753.50;5031830;28;20525;-61
2022/07/17 04:29:37;;;;;;;4.78;2.80;;;;;;;24.68;38.91;99734.13;5031880;28;20177;-61
2022/07/17 04:32:03;;;;;;;4.35;2.60;;;;;;;25.66;36.32;99731.09;5032183;28;20464;-61
2022/07/17 04:34:29;;;;;;;3.67;2.70;;;;;;;25.78;35.85;99731.19;5031848;28;20048;-61
2022/07/17 04:36:55;;;;;;;6.82;2.80;;;;;;;25.52;35.75;99708.44;5031801;28;20038;-60
2022/07/17 04:39:23;;;;;;;3.60;2.28;;;;;;;25.31;36.20;99729.69;5031688;28;20029;-60
2022/07/17 04:41:48;;;;;;;2.55;2.05;;;;;;;24.98;36.14;99699.84;5031482;28;20041;-60
2022/07/17 04:44:14;;;;;;;4.15;2.00;;;;;;;24.89;36.57;99719.25;5031506;28;20057;-61
2022/07/17 04:46:39;;;;;;;2.72;1.90;;;;;;;24.62;36.70;99724.03;5031569;28;20104;-60
2022/07/17 04:49:05;;;;;;;2.90;2.10;;;;;;;24.49;37.39;99728.53;5029882;28;20025;-61
2022/07/17 04:51:30;;;;;;;1.90;1.63;;;;;;;24.36;37.33;99728.59;5028839;28;20048;-61
2022/07/17 04:53:56;;;;;;;3.92;1.50;;;;;;;25.19;35.69;99726.00;5029978;28;20041;-61
2022/07/17 04:56:21;;;;;;;2.08;1.55;;;;;;;25.98;33.85;99724.66;5028213;28;20040;-61
2022/07/17 04:58:47;;;;;;;3.13;1.30;;;;;;;26.22;33.13;99721.00;5031389;28;20037;-61
2022/07/17 05:01:12;;;;;;;2.28;1.52;;;;;;;26.20;33.58;99719.59;5031722;28;20107;-61
2022/07/17 05:03:38;;;;;;;2.15;1.60;;;;;;;26.25;33.05;99716.13;5030995;28;20528;-62
2022/07/17 05:06:04;;;;;;;1.55;1.30;;;;;;;26.55;31.95;99720.81;5030356;28;20033;-61
2022/07/17 05:08:29;;;;;;;2.38;1.40;;;;;;;26.68;32.10;99720.63;5031199;28;20465;-60
2022/07/17 05:10:55;;;;;;;2.95;0.93;;;;;;;26.44;31.42;99722.44;5030813;28;20044;-62
2022/07/17 05:13:21;;;;;;;1.85;0.80;;;;;;;26.23;31.38;99725.44;5031389;28;20038;-61
2022/07/17 05:15:46;;;;;;;5.00;1.20;;;;;;;26.16;31.62;99730.16;5030871;28;20030;-62
2022/07/17 05:18:11;;;;;;;3.40;1.20;;;;;;;25.92;32.28;99732.72;5031324;28;20067;-60
2022/07/17 05:20:40;;;;;;;2.17;1.00;;;;;;;25.62;33.39;99741.69;5030840;28;20025;-61
2022/07/17 05:23:05;;;;;;;1.48;1.00;;;;;;;25.27;33.41;99725.72;5031274;28;20040;-62
2022/07/17 05:25:31;;;;;;;1.30;1.00;;;;;;;24.96;33.74;99740.28;5028886;28;20038;-63
2022/07/17 05:27:57;;;;;;;1.42;1.02;;;;;;;24.51;34.52;99739.25;5030427;28;20025;-61
2022/07/17 05:30:23;;;;;;;1.38;0.85;;;;;;;24.26;35.25;99744.63;5030859;28;20044;-61
2022/07/17 05:32:48;;;;;;;3.30;1.20;;;;;;;24.37;34.98;99741.22;5031302;28;20032;-61
2022/07/17 05:35:14;;;;;;;2.95;1.10;;;;;;;24.59;34.87;99747.22;5026949;28;20042;-62
2022/07/17 05:37:39;;;;;;;0.95;0.80;;;;;;;24.69;33.93;99722.09;5030334;28;20071;-61
2022/07/17 05:40:05;;;;;;;1.52;0.60;;;;;;;25.23;33.19;99746.41;5029632;28;20037;-62
2022/07/17 05:42:31;;;;;;;2.88;0.77;;;;;;;25.51;32.66;99726.81;5029919;28;20103;-60
2022/07/17 05:44:56;;;;;;;0.90;0.80;;;;;;;26.11;31.70;99727.25;5027882;28;20037;-60
2022/07/17 05:47:22;;;;;;;2.90;0.85;;;;;;;27.35;29.81;99727.84;5028854;28;20108;-61
2022/07/17 05:49:47;;;;;;;1.90;0.70;;;;;;;29.07;27.11;99726.78;5029180;28;20037;-62
2022/07/17 05:52:13;;;;;;;1.17;0.80;;;;;;;31.87;23.39;99722.59;5029663;28;20079;-61
2022/07/17 05:54:38;;;;;;;1.35;0.90;;;;;;;33.74;20.89;99706.25;5030009;28;20033;-55
2022/07/17 05:57:04;;;;;;;2.08;0.80;;;;;;;35.09;19.56;99709.25;5028991;28;20029;-51
2022/07/17 05:59:29;;;;;;;2.78;1.00;;;;;;;36.47;18.00;99715.53;5029364;28;20022;-62
2022/07/17 06:01:54;;;;;;;2.03;1.05;;;;;;;37.73;16.37;99721.63;5028274;28;20018;-59
2022/07/17 06:04:20;;;;;;;0.82;0.80;;;;;;;39.19;14.97;99717.31;5027891;28;20033;-60
2022/07/17 06:06:45;;;;;;;2.55;0.77;;;;;;;40.36;13.41;99712.72;5029383;28;20025;-61
2022/07/17 06:09:12;;;;;;;1.25;0.40;;;;;;;41.44;12.14;99722.41;5028843;28;20163;-61
2022/07/17 06:11:37;;;;;;;1.38;0.60;;;;;;;42.60;11.77;99705.47;5028230;28;20057;-60
2022/07/17 06:14:03;;;;;;;2.13;0.70;;;;;;;43.63;10.67;99713.53;5028960;28;20109;-60
2022/07/17 06:16:28;;;;;;;1.38;0.80;;;;;;;44.81;10.28;99714.00;5031889;28;20041;-60
2022/07/17 06:18:54;;;;;;;5.90;1.00;;;;;;;45.57;9.15;99714.06;5031757;28;20109;-60
2022/07/17 06:21:19;;;;;;;0.80;0.63;;;;;;;46.12;8.55;99719.09;5033039;28;20041;-61
2022/07/17 06:23:45;;;;;;;1.05;0.70;;;;;;;46.41;8.39;99714.06;5034025;28;20080;-60
2022/07/17 06:26:10;;;;;;;2.10;0.98;;;;;;;47.18;7.97;99712.81;5033483;28;20108;-59
2022/07/17 06:28:36;;;;;;;2.63;0.93;;;;;;;47.86;7.23;99714.00;5034141;28;20036;-60
2022/07/17 06:31:01;;;;;;;1.40;0.95;;;;;;;48.53;7.15;99716.59;5032413;28;20037;-59
2022/07/17 06:33:27;;;;;;;0.70;0.70;;;;;;;48.96;6.55;99708.63;5032905;28;20060;-61
2022/07/17 06:35:52;;;;;;;0.90;0.70;;;;;;;48.85;7.12;99704.81;5032788;28;20060;-60
2022/07/17 06:38:18;;;;;;;2.42;1.02;;;;;;;49.47;6.83;99694.91;5033617;28;20041;-63
2022/07/17 06:40:43;;;;;;;1.05;0.70;;;;;;;49.95;6.21;99696.91;5034252;28;20022;-59
2022/07/17 06:43:09;;;;;;;1.35;0.90;;;;;;;49.01;6.62;99683.88;5032792;28;20071;-60
2022/07/17 06:45:35;;;;;;;1.55;0.80;;;;;;;48.05;7.47;99689.59;5032660;28;20164;-62
2022/07/17 06:48:00;;;;;;;1.60;0.82;;;;;;;47.74;7.65;99688.66;5032752;28;20033;-59
2022/07/17 06:50:26;;;;;;;3.33;0.75;;;;;;;47.72;7.29;99674.06;5032540;28;20033;-59
2022/07/17 06:52:51;;;;;;;2.40;0.90;;;;;;;48.09;7.33;99686.78;5031617;28;20064;-61
2022/07/17 06:55:17;;;;;;;1.00;0.80;;;;;;;49.10;6.76;99681.53;5032554;28;20036;-59
2022/07/17 06:57:42;;;;;;;1.25;0.88;;;;;;;50.17;6.12;99687.69;5032161;28;20076;-60
2022/07/17 07:00:08;;;;;;;1.35;1.00;;;;;;;51.01;5.55;99686.84;5033734;28;20037;-59
2022/07/17 07:02:34;;;;;;;2.03;0.90;;;;;;;51.67;5.56;99693.41;5033845;28;20034;-59
2022/07/17 07:05:00;;;;;;;1.25;1.15;;;;;;;50.63;5.74;99678.56;5033770;28;20126;-61
2022/07/17 07:07:25;;;;;;;2.55;1.20;;;;;;;49.42;6.21;99684.69;5032930;28;20040;-59
2022/07/17 07:09:51;;;;;;;1.10;0.82;;;;;;;48.46;6.83;99682.41;5033056;28;20045;-61
2022/07/17 07:12:16;;;;;;;1.10;1.00;;;;;;;48.32;7.09;99681.03;5030297;28;20030;-61
2022/07/17 07:14:42;;;;;;;1.55;1.10;;;;;;;49.31;6.33;99680.13;5032659;28;20068;-63
2022/07/17 07:17:07;;;;;;;2.22;0.90;;;;;;;48.85;6.69;99676.41;5032802;28;20118;-64
2022/07/17 07:19:33;;;;;;;2.63;0.90;;;;;;;45.69;8.49;99686.91;5033200;28;20032;-64
2022/07/17 07:21:58;;;;;;;3.22;0.88;;;;;;;42.13;10.77;99667.06;5033861;28;20378;-61
2022/07/17 07:24:24;;;;;;;0.90;0.70;;;;;;;40.19;12.33;99681.47;5033505;28;20048;-62
2022/07/17 07:26:49;;;;;;;1.60;1.25;;;;;;;40.34;11.97;99682.19;5032266;28;20381;-62
2022/07/17 07:29:15;;;;;;;0.93;0.80;;;;;;;42.78;10.50;99676.31;5033247;28;20025;-62
2022/07/17 07:31:40;;;;;;;2.78;0.80;;;;;;;45.80;8.40;99688.00;5033287;28;20021;-61
2022/07/17 07:34:06;;;;;;;1.20;0.80;;;;;;;48.23;6.60;99684.16;5030045;28;20117;-62
2022/07/17 07:36:31;;;;;;;0.87;0.70;;;;;;;50.17;6.16;99690.53;5032288;28;20075;-63
2022/07/17 07:38:57;;;;;;;1.13;1.02;;;;;;;51.67;5.28;99687.69;5032947;28;20266;-59
2022/07/17 07:41:23;;;;;;;0.98;0.70;;;;;;;52.07;4.63;99677.00;5031408;28;20037;-62
2022/07/17 07:43:48;;;;;;;0.93;0.93;;;;;;;52.19;5.06;99649.25;5033019;28;20030;-61
2022/07/17 07:46:13;;;;;;;1.65;1.27;;;;;;;53.30;4.44;99669.84;5029891;28;20030;-62
2022/07/17 07:48:39;;;;;;;2.05;1.55;;;;;;;53.23;4.69;99670.69;5032581;28;20040;-60
2022/07/17 07:51:04;;;;;;;1.27;1.17;;;;;;;52.97;3.86;99675.78;5031519;28;20028;-62
2022/07/17 07:53:30;;;;;;;1.60;1.50;;;;;;;53.55;3.75;99679.47;5032599;28;20243;-60
2022/07/17 07:55:55;;;;;;;1.70;1.60;;;;;;;53.94;3.32;99681.09;5031944;28;20032;-60
2022/07/17 07:58:21;;;;;;;1.65;1.55;;;;;;;53.60;3.62;99690.44;5031454;28;20069;-61
2022/07/17 08:00:47;;;;;;;1.70;1.60;;;;;;;50.74;5.06;99677.78;5032537;28;20113;-60
2022/07/17 08:03:14;;;;;;;1.33;1.27;;;;;;;48.97;6.17;99679.00;5028957;28;20413;-62
2022/07/17 08:05:39;;;;;;;1.40;1.30;;;;;;;49.85;5.85;99674.88;5031454;28;20681;-60
2022/07/17 08:08:05;;;;;;;1.48;1.38;;;;;;;50.64;5.35;99680.19;5032180;28;20060;-62
2022/07/17 08:10:31;;;;;;;1.50;1.40;;;;;;;50.72;5.43;99658.22;5032520;28;20030;-61
2022/07/17 08:12:56;;;;;;;2.80;1.35;;;;;;;50.75;5.43;99685.09;5032228;28;20025;-61
2022/07/17 08:15:22;;;;;;;1.60;1.50;;;;;;;50.54;5.21;99680.94;5032259;28;20044;-62
2022/07/17 08:17:51;;;;;;;2.30;1.20;;;;;;;50.41;5.14;99689.03;5031678;28;20270;-61
2022/07/17 08:20:17;;;;;;;1.25;1.25;;;;;;;49.76;5.78;99688.63;5031942;28;20083;-62
2022/07/17 08:22:44;;;;;;;1.20;1.10;;;;;;;49.19;5.88;99684.88;5032153;28;20886;-60
2022/07/17 08:25:10;;;;;;;1.05;0.95;;;;;;;47.06;7.67;99688.28;5031893;28;20029;-61
2022/07/17 08:27:38;;;;;;;1.00;0.90;;;;;;;42.82;10.13;99680.09;5032241;28;20026;-59
2022/07/17 08:30:05;;;;;;;0.90;0.80;;;;;;;39.73;12.17;99680.03;5031906;28;20079;-60
2022/07/17 08:32:30;;;;;;;1.95;0.88;;;;;;;37.51;14.55;99680.44;5031817;28;20528;-60
2022/07/17 08:34:56;;;;;;;1.52;0.80;;;;;;;35.53;16.09;99653.72;5031696;28;20049;-61
2022/07/17 08:37:24;;;;;;;2.95;0.77;;;;;;;34.02;17.84;99687.34;5031087;28;20041;-60
2022/07/17 08:39:49;;;;;;;0.80;0.70;;;;;;;32.58;19.37;99694.63;5030976;28;20105;-60
2022/07/17 08:42:16;;;;;;;1.60;0.80;;;;;;;31.59;20.28;99702.50;5032135;28;20124;-62
2022/07/17 08:44:42;;;;;;;4.00;0.85;;;;;;;30.65;21.21;99700.84;5031653;28;20044;-62
2022/07/17 08:47:09;;;;;;;1.30;0.55;;;;;;;29.86;22.46;99702.09;5027423;28;20037;-62
2022/07/17 08:49:39;;;;;;;0.85;0.70;;;;;;;29.22;23.11;99698.66;5012401;28;20029;-61
2022/07/17 08:52:04;;;;;;;1.55;0.90;;;;;;;28.53;24.05;99666.56;5012044;28;20026;-63
2022/07/17 08:54:30;;;;;;;1.75;1.05;;;;;;;28.39;24.66;99699.91;5011831;28;20079;-60
2022/07/17 08:56:57;;;;;;;4.78;0.80;;;;;;;28.22;24.73;99700.69;5030914;28;20462;-67
2022/07/17 08:59:22;;;;;;;1.88;0.90;;;;;;;28.10;25.01;99699.84;5031822;28;20343;-61
2022/07/17 09:01:54;;;;;;;2.63;1.02;;;;;;;28.11;24.95;99698.75;5068739;28;20375;-61
2022/07/17 09:04:20;;;;;;;1.13;0.82;;;;;;;28.08;24.84;99707.50;5068117;28;20033;-61
2022/07/17 09:06:46;;;;;;;0.98;0.60;;;;;;;28.03;24.88;99694.47;5067636;28;20032;-60
2022/07/17 09:09:13;;;;;;;1.42;0.82;;;;;;;28.31;24.40;99714.06;5067687;28;20041;-61
2022/07/17 09:11:44;;;;;;;1.45;0.80;;;;;;;28.65;23.77;99708.63;5067772;28;20024;-61
2022/07/17 09:14:09;;;;;;;1.45;0.90;;;;;;;28.87;23.49;99703.31;5067849;28;20032;-60
2022/07/17 09:16:36;;;;;;;2.22;0.68;;;;;;;29.08;23.33;99703.66;5067641;28;20051;-61
2022/07/17 09:19:02;;;;;;;3.25;1.05;;;;;;;29.22;23.05;99704.97;5067872;28;20488;-60
2022/07/17 09:21:28;;;;;;;0.90;0.80;;;;;;;29.04;23.69;99710.72;5067482;28;20056;-62
2022/07/17 09:24:01;;;;;;;1.98;0.90;;;;;;;28.70;24.31;99708.75;5067996;28;20090;-59
2022/07/17 09:26:27;;;;;;;1.05;0.90;;;;;;;28.34;24.06;99713.56;5066185;28;20032;-66
2022/07/17 09:28:53;;;;;;;1.05;0.63;;;;;;;28.21;23.26;99712.78;5066517;28;20040;-63
2022/07/17 09:31:32;;;;;;;0.88;0.70;;;;;;;28.18;23.51;99720.69;5068085;28;20028;-62
2022/07/17 09:33:58;;;;;;;0.70;0.60;;;;;;;27.72;24.39;99688.31;5066975;28;20033;-62
2022/07/17 09:36:25;;;;;;;1.33;0.80;;;;;;;27.75;24.12;99729.09;5067455;28;20047;-61
2022/07/17 09:38:55;;;;;;;2.50;1.13;;;;;;;27.71;24.82;99718.78;5067237;28;20063;-60
2022/07/17 09:41:23;;;;;;;2.17;1.02;;;;;;;27.53;25.28;99717.88;5058004;28;20030;-61
2022/07/17 09:43:53;;;;;;;2.38;1.17;;;;;;;27.44;25.18;99716.50;5047383;28;20045;-61
2022/07/17 09:46:24;;;;;;;2.00;1.15;;;;;;;27.29;25.71;99715.06;5059897;28;20067;-64
2022/07/17 09:48:55;;;;;;;3.53;1.15;;;;;;;26.93;25.82;99720.50;5067366;28;20099;-61
2022/07/17 09:51:32;;;;;;;4.85;1.00;;;;;;;26.85;25.90;99714.50;5067137;28;20032;-60
2022/07/17 09:54:00;;;;;;;0.95;0.80;;;;;;;26.62;26.26;99710.56;5067294;28;20052;-61
2022/07/17 09:56:29;;;;;;;1.80;1.05;;;;;;;26.54;26.34;99708.16;5052098;28;20025;-61
2022/07/17 09:59:04;;;;;;;1.38;1.10;;;;;;;26.74;25.71;99708.69;5060360;28;20094;-61
2022/07/17 10:01:31;;;;;;;1.55;1.00;;;;;;;26.85;25.90;99706.28;5054545;28;20124;-62
2022/07/17 10:03:57;;;;;;;2.65;1.30;;;;;;;27.06;25.29;99711.22;5047415;28;20119;-62
2022/07/17 10:06:24;;;;;;;1.25;0.73;;;;;;;27.29;24.96;99717.81;5047127;28;20133;-61
2022/07/17 10:08:51;;;;;;;1.65;1.10;;;;;;;27.53;24.76;99717.88;5058067;28;20033;-60
2022/07/17 10:11:22;;;;;;;1.48;0.80;;;;;;;27.84;23.68;99713.06;5046504;28;20047;-60
2022/07/17 10:13:51;;;;;;;3.70;1.10;;;;;;;28.16;22.56;99717.34;5035769;28;20052;-60
2022/07/17 10:16:25;;;;;;;2.60;1.00;;;;;;;28.54;22.91;99718.63;5053309;28;20087;-61
2022/07/17 10:18:52;;;;;;;1.38;0.85;;;;;;;28.74;22.40;99707.19;5040421;28;20462;-61
2022/07/17 10:21:19;;;;;;;1.58;0.90;;;;;;;28.92;22.03;99719.91;5044085;28;20102;-60
2022/07/17 10:23:50;;;;;;;1.08;0.98;;;;;;;29.21;22.63;99721.78;5040741;28;20033;-60
2022/07/17 10:26:16;;;;;;;1.00;0.88;;;;;;;29.19;22.59;99710.19;5031902;28;20087;-60
2022/07/17 10:28:46;;;;;;;1.58;0.75;;;;;;;29.14;22.39;99707.31;5033290;28;20520;-61
2022/07/17 10:31:27;;;;;;;1.00;0.80;;;;;;;29.02;22.77;99711.00;5047257;28;20055;-61
2022/07/17 10:34:04;;;;;;;1.77;0.98;;;;;;;28.65;23.19;99706.72;5052087;28;20082;-61
2022/07/17 10:36:40;;;;;;;1.45;1.00;;;;;;;28.58;23.93;99692.28;5053172;28;20033;-63
2022/07/17 10:39:20;;;;;;;1.40;0.90;;;;;;;28.30;23.59;99709.63;5051559;28;20029;-62
2022/07/17 10:42:00;;;;;;;2.05;1.10;;;;;;;27.94;24.35;99706.94;5034482;28;20039;-60
2022/07/17 10:44:30;;;;;;;2.58;0.90;;;;;;;27.79;25.04;99716.53;5041783;28;20473;-61
2022/07/17 10:46:56;;;;;;;3.72;0.95;;;;;;;27.91;24.02;99708.25;5052521;28;20033;-62
2022/07/17 10:49:23;;;;;;;0.90;0.85;;;;;;;28.12;23.47;99699.63;5035038;28;20037;-61
2022/07/17 10:51:50;;;;;;;2.30;0.75;;;;;;;28.29;23.11;99707.97;5049924;28;20029;-61
2022/07/17 10:54:15;;;;;;;1.52;0.88;;;;;;;28.21;23.10;99703.66;5052780;28;20052;-61
2022/07/17 10:56:41;;;;;;;1.33;0.88;;;;;;;27.84;23.51;99680.03;5052560;28;20415;-61
2022/07/17 10:59:06;;;;;;;1.35;1.10;;;;;;;27.86;24.28;99699.06;5051459;28;20044;-62
2022/07/17 11:01:32;;;;;;;1.52;0.90;;;;;;;27.86;24.65;99696.31;5032925;28;20507;-66
2022/07/17 11:04:00;;;;;;;1.92;0.90;;;;;;;27.87;24.47;99698.00;5031786;28;20038;-61
2022/07/17 11:06:27;;;;;;;1.90;0.82;;;;;;;27.72;24.45;99688.31;5046574;28;20037;-60
2022/07/17 11:08:56;;;;;;;1.50;1.00;;;;;;;27.69;23.71;99682.44;5052610;28;20138;-61
2022/07/17 11:11:42;;;;;;;3.33;0.95;;;;;;;27.90;23.43;99675.50;5052787;28;20060;-61
2022/07/17 11:14:19;;;;;;;1.80;1.10;;;;;;;27.99;24.20;99674.03;5049928;28;20040;-59
2022/07/17 11:16:52;;;;;;;1.25;1.00;;;;;;;28.13;24.28;99680.09;5052258;28;20591;-60
2022/07/17 11:19:31;;;;;;;2.10;1.20;;;;;;;28.37;24.00;99685.53;5032783;28;20079;-62
2022/07/17 11:22:00;;;;;;;1.25;0.90;;;;;;;28.35;23.29;99683.06;5032334;28;20057;-63
2022/07/17 11:24:38;;;;;;;2.40;0.90;;;;;;;28.30;23.71;99665.59;5040908;28;20037;-62
2022/07/17 11:27:04;;;;;;;3.38;1.02;;;;;;;28.02;24.11;99684.53;5051114;28;20079;-63
2022/07/17 11:29:29;;;;;;;3.47;0.95;;;;;;;27.92;24.09;99685.16;5052354;28;20032;-60
2022/07/17 11:31:56;;;;;;;3.33;1.10;;;;;;;27.91;24.09;99678.00;5052091;28;20033;-60